sensor_id;sensor_type;location;lat;lon;timestamp;pressure;altitude;pressure_sealevel;temperature
63220;BMP180;49320;52.512;13.448;2024-01-30T00:02:17;102468.00;;;11.20
63220;BMP180;49320;52.512;13.448;2024-01-30T00:04:44;102459.00;;;11.10
63220;BMP180;49320;52.512;13.448;2024-01-30T00:07:11;102457.00;;;11.10
63220;BMP180;49320;52.512;13.448;2024-01-30T00:09:38;102462.00;;;11.10
63220;BMP180;49320;52.512;13.448;2024-01-30T00:12:07;102472.00;;;11.10
63220;BMP180;49320;52.512;13.448;2024-01-30T00:14:34;102462.00;;;11.10
63220;BMP180;49320;52.512;13.448;2024-01-30T00:17:01;102470.00;;;11.10
63220;BMP180;49320;52.512;13.448;2024-01-30T00:19:28;102472.00;;;11.00
63220;BMP180;49320;52.512;13.448;2024-01-30T00:21:56;102480.00;;;11.00
63220;BMP180;49320;52.512;13.448;2024-01-30T00:24:23;102464.00;;;11.00
63220;BMP180;49320;52.512;13.448;2024-01-30T00:26:50;102475.00;;;10.90
63220;BMP180;49320;52.512;13.448;2024-01-30T00:29:17;102478.00;;;10.90
63220;BMP180;49320;52.512;13.448;2024-01-30T00:31:46;102472.00;;;10.80
63220;BMP180;49320;52.512;13.448;2024-01-30T00:34:14;102471.00;;;10.80
63220;BMP180;49320;52.512;13.448;2024-01-30T00:36:41;102470.00;;;10.80
63220;BMP180;49320;52.512;13.448;2024-01-30T00:39:08;102466.00;;;10.70
63220;BMP180;49320;52.512;13.448;2024-01-30T00:41:36;102463.00;;;10.70
63220;BMP180;49320;52.512;13.448;2024-01-30T00:44:04;102444.00;;;10.70
63220;BMP180;49320;52.512;13.448;2024-01-30T00:46:31;102466.00;;;10.60
63220;BMP180;49320;52.512;13.448;2024-01-30T00:48:58;102460.00;;;10.60
63220;BMP180;49320;52.512;13.448;2024-01-30T00:51:25;102463.00;;;10.60
63220;BMP180;49320;52.512;13.448;2024-01-30T00:53:52;102458.00;;;10.60
63220;BMP180;49320;52.512;13.448;2024-01-30T00:56:19;102463.00;;;10.50
63220;BMP180;49320;52.512;13.448;2024-01-30T00:58:47;102470.00;;;10.50
63220;BMP180;49320;52.512;13.448;2024-01-30T01:01:14;102462.00;;;10.50
63220;BMP180;49320;52.512;13.448;2024-01-30T01:03:42;102468.00;;;10.50
63220;BMP180;49320;52.512;13.448;2024-01-30T01:06:11;102459.00;;;10.40
63220;BMP180;49320;52.512;13.448;2024-01-30T01:08:38;102461.00;;;10.40
63220;BMP180;49320;52.512;13.448;2024-01-30T01:11:06;102460.00;;;10.40
63220;BMP180;49320;52.512;13.448;2024-01-30T01:13:33;102461.00;;;10.40
63220;BMP180;49320;52.512;13.448;2024-01-30T01:16:00;102463.00;;;10.40
63220;BMP180;49320;52.512;13.448;2024-01-30T01:18:27;102463.00;;;10.40
63220;BMP180;49320;52.512;13.448;2024-01-30T01:20:54;102466.00;;;10.40
63220;BMP180;49320;52.512;13.448;2024-01-30T01:23:21;102469.00;;;10.40
63220;BMP180;49320;52.512;13.448;2024-01-30T01:25:49;102461.00;;;10.40
63220;BMP180;49320;52.512;13.448;2024-01-30T01:28:16;102457.00;;;10.40
63220;BMP180;49320;52.512;13.448;2024-01-30T01:30:43;102463.00;;;10.40
63220;BMP180;49320;52.512;13.448;2024-01-30T01:33:11;102472.00;;;10.40
63220;BMP180;49320;52.512;13.448;2024-01-30T01:35:41;102455.00;;;10.40
63220;BMP180;49320;52.512;13.448;2024-01-30T01:38:08;102468.00;;;10.40
63220;BMP180;49320;52.512;13.448;2024-01-30T01:40:35;102468.00;;;10.30
63220;BMP180;49320;52.512;13.448;2024-01-30T01:43:03;102455.00;;;10.30
63220;BMP180;49320;52.512;13.448;2024-01-30T01:45:32;102453.00;;;10.30
63220;BMP180;49320;52.512;13.448;2024-01-30T01:47:59;102460.00;;;10.30
63220;BMP180;49320;52.512;13.448;2024-01-30T01:50:27;102460.00;;;10.20
63220;BMP180;49320;52.512;13.448;2024-01-30T01:52:56;102446.00;;;10.20
63220;BMP180;49320;52.512;13.448;2024-01-30T01:55:24;102458.00;;;10.20
63220;BMP180;49320;52.512;13.448;2024-01-30T01:57:53;102452.00;;;10.20
63220;BMP180;49320;52.512;13.448;2024-01-30T02:00:21;102448.00;;;10.20
63220;BMP180;49320;52.512;13.448;2024-01-30T02:02:49;102449.00;;;10.10
63220;BMP180;49320;52.512;13.448;2024-01-30T02:05:16;102449.00;;;10.10
63220;BMP180;49320;52.512;13.448;2024-01-30T02:07:44;102453.00;;;10.10
63220;BMP180;49320;52.512;13.448;2024-01-30T02:10:11;102447.00;;;10.10
63220;BMP180;49320;52.512;13.448;2024-01-30T02:12:39;102443.00;;;10.10
63220;BMP180;49320;52.512;13.448;2024-01-30T02:15:07;102454.00;;;10.10
63220;BMP180;49320;52.512;13.448;2024-01-30T02:17:34;102458.00;;;10.10
63220;BMP180;49320;52.512;13.448;2024-01-30T02:20:01;102452.00;;;10.10
63220;BMP180;49320;52.512;13.448;2024-01-30T02:22:31;102451.00;;;10.10
63220;BMP180;49320;52.512;13.448;2024-01-30T02:24:59;102455.00;;;10.10
63220;BMP180;49320;52.512;13.448;2024-01-30T02:27:26;102449.00;;;10.10
63220;BMP180;49320;52.512;13.448;2024-01-30T02:29:53;102452.00;;;10.10
63220;BMP180;49320;52.512;13.448;2024-01-30T02:32:20;102444.00;;;10.10
63220;BMP180;49320;52.512;13.448;2024-01-30T02:34:48;102443.00;;;10.10
63220;BMP180;49320;52.512;13.448;2024-01-30T02:37:16;102450.00;;;10.10
63220;BMP180;49320;52.512;13.448;2024-01-30T02:39:43;102443.00;;;10.10
63220;BMP180;49320;52.512;13.448;2024-01-30T02:42:10;102447.00;;;10.10
63220;BMP180;49320;52.512;13.448;2024-01-30T02:44:38;102446.00;;;10.10
63220;BMP180;49320;52.512;13.448;2024-01-30T02:47:05;102448.00;;;10.00
63220;BMP180;49320;52.512;13.448;2024-01-30T02:49:32;102441.00;;;10.00
63220;BMP180;49320;52.512;13.448;2024-01-30T02:51:59;102436.00;;;10.00
63220;BMP180;49320;52.512;13.448;2024-01-30T02:54:27;102438.00;;;10.00
63220;BMP180;49320;52.512;13.448;2024-01-30T02:56:54;102440.00;;;10.00
63220;BMP180;49320;52.512;13.448;2024-01-30T02:59:21;102435.00;;;10.00
63220;BMP180;49320;52.512;13.448;2024-01-30T03:01:48;102430.00;;;10.00
63220;BMP180;49320;52.512;13.448;2024-01-30T03:04:16;102433.00;;;10.00
63220;BMP180;49320;52.512;13.448;2024-01-30T03:06:46;102437.00;;;10.00
63220;BMP180;49320;52.512;13.448;2024-01-30T03:09:17;102436.00;;;10.00
63220;BMP180;49320;52.512;13.448;2024-01-30T03:11:47;102431.00;;;10.00
63220;BMP180;49320;52.512;13.448;2024-01-30T03:14:14;102428.00;;;10.00
63220;BMP180;49320;52.512;13.448;2024-01-30T03:16:41;102419.00;;;10.00
63220;BMP180;49320;52.512;13.448;2024-01-30T03:19:08;102424.00;;;10.00
63220;BMP180;49320;52.512;13.448;2024-01-30T03:21:36;102421.00;;;10.00
63220;BMP180;49320;52.512;13.448;2024-01-30T03:24:03;102424.00;;;10.00
63220;BMP180;49320;52.512;13.448;2024-01-30T03:26:30;102424.00;;;10.00
63220;BMP180;49320;52.512;13.448;2024-01-30T03:28:58;102423.00;;;10.00
63220;BMP180;49320;52.512;13.448;2024-01-30T03:31:25;102422.00;;;10.00
63220;BMP180;49320;52.512;13.448;2024-01-30T03:33:52;102416.00;;;10.00
63220;BMP180;49320;52.512;13.448;2024-01-30T03:36:20;102418.00;;;10.00
63220;BMP180;49320;52.512;13.448;2024-01-30T03:38:47;102424.00;;;10.00
63220;BMP180;49320;52.512;13.448;2024-01-30T03:41:14;102418.00;;;10.00
63220;BMP180;49320;52.512;13.448;2024-01-30T03:43:42;102413.00;;;10.00
63220;BMP180;49320;52.512;13.448;2024-01-30T03:46:09;102419.00;;;10.00
63220;BMP180;49320;52.512;13.448;2024-01-30T03:48:38;102419.00;;;10.00
63220;BMP180;49320;52.512;13.448;2024-01-30T03:51:06;102419.00;;;10.00
63220;BMP180;49320;52.512;13.448;2024-01-30T03:53:33;102415.00;;;10.00
63220;BMP180;49320;52.512;13.448;2024-01-30T03:56:00;102419.00;;;10.00
63220;BMP180;49320;52.512;13.448;2024-01-30T03:58:27;102420.00;;;10.00
63220;BMP180;49320;52.512;13.448;2024-01-30T04:00:55;102417.00;;;10.00
63220;BMP180;49320;52.512;13.448;2024-01-30T04:03:22;102418.00;;;10.00
63220;BMP180;49320;52.512;13.448;2024-01-30T04:05:51;102412.00;;;9.90
63220;BMP180;49320;52.512;13.448;2024-01-30T04:08:18;102419.00;;;9.90
63220;BMP180;49320;52.512;13.448;2024-01-30T04:10:46;102418.00;;;9.90
63220;BMP180;49320;52.512;13.448;2024-01-30T04:13:13;102416.00;;;9.90
63220;BMP180;49320;52.512;13.448;2024-01-30T04:15:40;102419.00;;;9.90
63220;BMP180;49320;52.512;13.448;2024-01-30T04:18:08;102419.00;;;9.90
63220;BMP180;49320;52.512;13.448;2024-01-30T04:20:35;102425.00;;;9.90
63220;BMP180;49320;52.512;13.448;2024-01-30T04:23:02;102422.00;;;9.90
63220;BMP180;49320;52.512;13.448;2024-01-30T04:25:29;102421.00;;;9.90
63220;BMP180;49320;52.512;13.448;2024-01-30T04:27:56;102423.00;;;9.90
63220;BMP180;49320;52.512;13.448;2024-01-30T04:30:24;102425.00;;;9.90
63220;BMP180;49320;52.512;13.448;2024-01-30T04:32:51;102420.00;;;10.00
63220;BMP180;49320;52.512;13.448;2024-01-30T04:35:18;102420.00;;;10.00
63220;BMP180;49320;52.512;13.448;2024-01-30T04:37:47;102418.00;;;10.00
63220;BMP180;49320;52.512;13.448;2024-01-30T04:40:15;102420.00;;;10.00
63220;BMP180;49320;52.512;13.448;2024-01-30T04:42:42;102419.00;;;10.00
63220;BMP180;49320;52.512;13.448;2024-01-30T04:45:09;102414.00;;;10.00
63220;BMP180;49320;52.512;13.448;2024-01-30T04:47:36;102411.00;;;10.00
63220;BMP180;49320;52.512;13.448;2024-01-30T04:50:04;102401.00;;;10.00
63220;BMP180;49320;52.512;13.448;2024-01-30T04:52:32;102396.00;;;10.00
63220;BMP180;49320;52.512;13.448;2024-01-30T04:54:59;102401.00;;;10.00
63220;BMP180;49320;52.512;13.448;2024-01-30T04:57:26;102406.00;;;10.00
63220;BMP180;49320;52.512;13.448;2024-01-30T04:59:54;102415.00;;;10.00
63220;BMP180;49320;52.512;13.448;2024-01-30T05:02:21;102416.00;;;10.00
63220;BMP180;49320;52.512;13.448;2024-01-30T05:04:48;102407.00;;;10.00
63220;BMP180;49320;52.512;13.448;2024-01-30T05:07:15;102407.00;;;10.00
63220;BMP180;49320;52.512;13.448;2024-01-30T05:09:43;102401.00;;;10.00
63220;BMP180;49320;52.512;13.448;2024-01-30T05:12:10;102411.00;;;10.00
63220;BMP180;49320;52.512;13.448;2024-01-30T05:14:37;102416.00;;;10.00
63220;BMP180;49320;52.512;13.448;2024-01-30T05:17:04;102402.00;;;10.00
63220;BMP180;49320;52.512;13.448;2024-01-30T05:19:31;102400.00;;;10.00
63220;BMP180;49320;52.512;13.448;2024-01-30T05:21:59;102403.00;;;10.00
63220;BMP180;49320;52.512;13.448;2024-01-30T05:24:26;102413.00;;;10.00
63220;BMP180;49320;52.512;13.448;2024-01-30T05:26:54;102406.00;;;10.00
63220;BMP180;49320;52.512;13.448;2024-01-30T05:29:21;102400.00;;;10.00
63220;BMP180;49320;52.512;13.448;2024-01-30T05:31:48;102408.00;;;10.00
63220;BMP180;49320;52.512;13.448;2024-01-30T05:34:16;102401.00;;;10.00
63220;BMP180;49320;52.512;13.448;2024-01-30T05:36:43;102399.00;;;10.00
63220;BMP180;49320;52.512;13.448;2024-01-30T05:39:10;102408.00;;;10.00
63220;BMP180;49320;52.512;13.448;2024-01-30T05:41:37;102402.00;;;10.00
63220;BMP180;49320;52.512;13.448;2024-01-30T05:44:05;102405.00;;;10.00
63220;BMP180;49320;52.512;13.448;2024-01-30T05:46:33;102403.00;;;10.00
63220;BMP180;49320;52.512;13.448;2024-01-30T05:49:00;102398.00;;;10.00
63220;BMP180;49320;52.512;13.448;2024-01-30T05:51:28;102395.00;;;10.00
63220;BMP180;49320;52.512;13.448;2024-01-30T05:53:55;102392.00;;;10.00
63220;BMP180;49320;52.512;13.448;2024-01-30T05:56:22;102396.00;;;10.00
63220;BMP180;49320;52.512;13.448;2024-01-30T05:58:50;102401.00;;;10.00
63220;BMP180;49320;52.512;13.448;2024-01-30T06:01:18;102391.00;;;10.00
63220;BMP180;49320;52.512;13.448;2024-01-30T06:03:45;102394.00;;;10.00
63220;BMP180;49320;52.512;13.448;2024-01-30T06:06:12;102395.00;;;10.00
63220;BMP180;49320;52.512;13.448;2024-01-30T06:08:39;102393.00;;;10.00
63220;BMP180;49320;52.512;13.448;2024-01-30T06:11:09;102394.00;;;10.00
63220;BMP180;49320;52.512;13.448;2024-01-30T06:13:36;102389.00;;;10.00
63220;BMP180;49320;52.512;13.448;2024-01-30T06:16:04;102395.00;;;10.00
63220;BMP180;49320;52.512;13.448;2024-01-30T06:18:31;102401.00;;;10.00
63220;BMP180;49320;52.512;13.448;2024-01-30T06:20:58;102401.00;;;10.00
63220;BMP180;49320;52.512;13.448;2024-01-30T06:23:25;102391.00;;;9.90
63220;BMP180;49320;52.512;13.448;2024-01-30T06:25:53;102394.00;;;9.90
63220;BMP180;49320;52.512;13.448;2024-01-30T06:28:19;102384.00;;;9.90
63220;BMP180;49320;52.512;13.448;2024-01-30T06:30:47;102394.00;;;9.90
63220;BMP180;49320;52.512;13.448;2024-01-30T06:33:14;102396.00;;;9.90
63220;BMP180;49320;52.512;13.448;2024-01-30T06:35:42;102390.00;;;10.00
63220;BMP180;49320;52.512;13.448;2024-01-30T06:38:11;102385.00;;;10.00
63220;BMP180;49320;52.512;13.448;2024-01-30T06:40:38;102398.00;;;10.00
63220;BMP180;49320;52.512;13.448;2024-01-30T06:43:05;102388.00;;;10.00
63220;BMP180;49320;52.512;13.448;2024-01-30T06:45:32;102400.00;;;10.00
63220;BMP180;49320;52.512;13.448;2024-01-30T06:48:00;102393.00;;;10.10
63220;BMP180;49320;52.512;13.448;2024-01-30T06:50:27;102393.00;;;10.10
63220;BMP180;49320;52.512;13.448;2024-01-30T06:52:54;102393.00;;;10.10
63220;BMP180;49320;52.512;13.448;2024-01-30T06:55:22;102388.00;;;10.10
63220;BMP180;49320;52.512;13.448;2024-01-30T06:57:49;102392.00;;;10.10
63220;BMP180;49320;52.512;13.448;2024-01-30T07:00:17;102389.00;;;10.20
63220;BMP180;49320;52.512;13.448;2024-01-30T07:02:46;102394.00;;;10.20
63220;BMP180;49320;52.512;13.448;2024-01-30T07:05:13;102384.00;;;10.20
63220;BMP180;49320;52.512;13.448;2024-01-30T07:07:41;102390.00;;;10.20
63220;BMP180;49320;52.512;13.448;2024-01-30T07:10:08;102399.00;;;10.30
63220;BMP180;49320;52.512;13.448;2024-01-30T07:12:36;102397.00;;;10.30
63220;BMP180;49320;52.512;13.448;2024-01-30T07:15:04;102390.00;;;10.30
63220;BMP180;49320;52.512;13.448;2024-01-30T07:17:31;102397.00;;;10.30
63220;BMP180;49320;52.512;13.448;2024-01-30T07:19:59;102400.00;;;10.40
63220;BMP180;49320;52.512;13.448;2024-01-30T07:22:26;102399.00;;;10.40
63220;BMP180;49320;52.512;13.448;2024-01-30T07:24:54;102392.00;;;10.40
63220;BMP180;49320;52.512;13.448;2024-01-30T07:27:21;102387.00;;;10.40
63220;BMP180;49320;52.512;13.448;2024-01-30T07:29:48;102384.00;;;10.40
63220;BMP180;49320;52.512;13.448;2024-01-30T07:32:16;102393.00;;;10.50
63220;BMP180;49320;52.512;13.448;2024-01-30T07:34:43;102385.00;;;10.50
63220;BMP180;49320;52.512;13.448;2024-01-30T07:37:29;102376.00;;;10.50
63220;BMP180;49320;52.512;13.448;2024-01-30T07:39:56;102382.00;;;10.50
63220;BMP180;49320;52.512;13.448;2024-01-30T07:42:23;102386.00;;;10.60
63220;BMP180;49320;52.512;13.448;2024-01-30T07:44:50;102384.00;;;10.60
63220;BMP180;49320;52.512;13.448;2024-01-30T07:47:17;102383.00;;;10.70
63220;BMP180;49320;52.512;13.448;2024-01-30T07:49:45;102390.00;;;10.70
63220;BMP180;49320;52.512;13.448;2024-01-30T07:52:12;102383.00;;;10.70
63220;BMP180;49320;52.512;13.448;2024-01-30T07:54:39;102376.00;;;10.70
63220;BMP180;49320;52.512;13.448;2024-01-30T07:57:06;102377.00;;;10.70
63220;BMP180;49320;52.512;13.448;2024-01-30T07:59:34;102378.00;;;10.80
63220;BMP180;49320;52.512;13.448;2024-01-30T08:02:01;102376.00;;;10.80
63220;BMP180;49320;52.512;13.448;2024-01-30T08:04:28;102381.00;;;10.80
63220;BMP180;49320;52.512;13.448;2024-01-30T08:06:56;102377.00;;;10.80
63220;BMP180;49320;52.512;13.448;2024-01-30T08:09:23;102378.00;;;10.90
63220;BMP180;49320;52.512;13.448;2024-01-30T08:11:50;102378.00;;;11.00
63220;BMP180;49320;52.512;13.448;2024-01-30T08:14:18;102377.00;;;11.00
63220;BMP180;49320;52.512;13.448;2024-01-30T08:16:45;102371.00;;;11.00
63220;BMP180;49320;52.512;13.448;2024-01-30T08:19:12;102372.00;;;11.10
63220;BMP180;49320;52.512;13.448;2024-01-30T08:21:40;102377.00;;;11.10
63220;BMP180;49320;52.512;13.448;2024-01-30T08:24:08;102371.00;;;11.20
63220;BMP180;49320;52.512;13.448;2024-01-30T08:26:35;102371.00;;;11.30
63220;BMP180;49320;52.512;13.448;2024-01-30T08:29:02;102361.00;;;11.30
63220;BMP180;49320;52.512;13.448;2024-01-30T08:31:30;102363.00;;;11.30
63220;BMP180;49320;52.512;13.448;2024-01-30T08:33:57;102365.00;;;11.30
63220;BMP180;49320;52.512;13.448;2024-01-30T08:36:25;102367.00;;;11.30
63220;BMP180;49320;52.512;13.448;2024-01-30T08:38:53;102368.00;;;11.30
63220;BMP180;49320;52.512;13.448;2024-01-30T08:41:25;102361.00;;;11.30
63220;BMP180;49320;52.512;13.448;2024-01-30T08:43:52;102360.00;;;11.40
63220;BMP180;49320;52.512;13.448;2024-01-30T08:46:20;102352.00;;;11.40
63220;BMP180;49320;52.512;13.448;2024-01-30T08:48:47;102359.00;;;11.40
63220;BMP180;49320;52.512;13.448;2024-01-30T08:51:15;102356.00;;;11.50
63220;BMP180;49320;52.512;13.448;2024-01-30T08:53:42;102362.00;;;11.50
63220;BMP180;49320;52.512;13.448;2024-01-30T08:56:09;102347.00;;;11.60
63220;BMP180;49320;52.512;13.448;2024-01-30T08:58:37;102363.00;;;11.70
63220;BMP180;49320;52.512;13.448;2024-01-30T09:01:04;102362.00;;;11.80
63220;BMP180;49320;52.512;13.448;2024-01-30T09:03:32;102349.00;;;11.80
63220;BMP180;49320;52.512;13.448;2024-01-30T09:06:00;102349.00;;;11.90
63220;BMP180;49320;52.512;13.448;2024-01-30T09:08:27;102358.00;;;12.00
63220;BMP180;49320;52.512;13.448;2024-01-30T09:10:54;102352.00;;;12.00
63220;BMP180;49320;52.512;13.448;2024-01-30T09:13:22;102346.00;;;12.10
63220;BMP180;49320;52.512;13.448;2024-01-30T09:15:49;102352.00;;;12.20
63220;BMP180;49320;52.512;13.448;2024-01-30T09:18:16;102353.00;;;12.30
63220;BMP180;49320;52.512;13.448;2024-01-30T09:20:43;102356.00;;;12.40
63220;BMP180;49320;52.512;13.448;2024-01-30T09:23:12;102353.00;;;12.50
63220;BMP180;49320;52.512;13.448;2024-01-30T09:25:39;102357.00;;;12.60
63220;BMP180;49320;52.512;13.448;2024-01-30T09:28:07;102354.00;;;12.60
63220;BMP180;49320;52.512;13.448;2024-01-30T09:30:35;102358.00;;;12.70
63220;BMP180;49320;52.512;13.448;2024-01-30T09:33:01;102351.00;;;12.80
63220;BMP180;49320;52.512;13.448;2024-01-30T09:35:29;102349.00;;;12.90
63220;BMP180;49320;52.512;13.448;2024-01-30T09:37:56;102359.00;;;13.00
63220;BMP180;49320;52.512;13.448;2024-01-30T09:40:25;102358.00;;;13.10
63220;BMP180;49320;52.512;13.448;2024-01-30T09:42:52;102360.00;;;13.10
63220;BMP180;49320;52.512;13.448;2024-01-30T09:45:24;102355.00;;;13.20
63220;BMP180;49320;52.512;13.448;2024-01-30T09:47:52;102363.00;;;13.30
63220;BMP180;49320;52.512;13.448;2024-01-30T09:50:20;102357.00;;;13.30
63220;BMP180;49320;52.512;13.448;2024-01-30T09:52:47;102355.00;;;13.40
63220;BMP180;49320;52.512;13.448;2024-01-30T09:55:15;102356.00;;;13.50
63220;BMP180;49320;52.512;13.448;2024-01-30T09:57:42;102364.00;;;13.50
63220;BMP180;49320;52.512;13.448;2024-01-30T10:00:10;102353.00;;;13.50
63220;BMP180;49320;52.512;13.448;2024-01-30T10:02:39;102348.00;;;13.60
63220;BMP180;49320;52.512;13.448;2024-01-30T10:05:07;102339.00;;;13.70
63220;BMP180;49320;52.512;13.448;2024-01-30T10:07:35;102352.00;;;13.70
63220;BMP180;49320;52.512;13.448;2024-01-30T10:10:02;102349.00;;;13.80
63220;BMP180;49320;52.512;13.448;2024-01-30T10:12:30;102342.00;;;13.80
63220;BMP180;49320;52.512;13.448;2024-01-30T10:14:57;102348.00;;;13.90
63220;BMP180;49320;52.512;13.448;2024-01-30T10:17:26;102333.00;;;13.90
63220;BMP180;49320;52.512;13.448;2024-01-30T10:20:00;102343.00;;;14.00
63220;BMP180;49320;52.512;13.448;2024-01-30T10:22:31;102340.00;;;14.10
63220;BMP180;49320;52.512;13.448;2024-01-30T10:25:00;102335.00;;;14.10
63220;BMP180;49320;52.512;13.448;2024-01-30T10:27:32;102338.00;;;14.20
63220;BMP180;49320;52.512;13.448;2024-01-30T10:30:00;102326.00;;;14.30
63220;BMP180;49320;52.512;13.448;2024-01-30T10:32:27;102329.00;;;14.30
63220;BMP180;49320;52.512;13.448;2024-01-30T10:34:54;102320.00;;;14.40
63220;BMP180;49320;52.512;13.448;2024-01-30T10:37:25;102331.00;;;14.40
63220;BMP180;49320;52.512;13.448;2024-01-30T10:39:54;102309.00;;;14.50
63220;BMP180;49320;52.512;13.448;2024-01-30T10:42:26;102319.00;;;14.60
63220;BMP180;49320;52.512;13.448;2024-01-30T10:45:09;102318.00;;;14.60
63220;BMP180;49320;52.512;13.448;2024-01-30T10:47:37;102322.00;;;14.60
63220;BMP180;49320;52.512;13.448;2024-01-30T10:50:05;102314.00;;;14.70
63220;BMP180;49320;52.512;13.448;2024-01-30T10:52:33;102320.00;;;14.70
63220;BMP180;49320;52.512;13.448;2024-01-30T10:55:01;102326.00;;;14.70
63220;BMP180;49320;52.512;13.448;2024-01-30T10:57:28;102327.00;;;14.80
63220;BMP180;49320;52.512;13.448;2024-01-30T11:00:00;102314.00;;;14.80
63220;BMP180;49320;52.512;13.448;2024-01-30T11:02:29;102321.00;;;14.80
63220;BMP180;49320;52.512;13.448;2024-01-30T11:04:58;102322.00;;;14.90
63220;BMP180;49320;52.512;13.448;2024-01-30T11:07:29;102323.00;;;14.90
63220;BMP180;49320;52.512;13.448;2024-01-30T11:10:03;102324.00;;;15.00
63220;BMP180;49320;52.512;13.448;2024-01-30T11:12:33;102320.00;;;15.00
63220;BMP180;49320;52.512;13.448;2024-01-30T11:15:09;102325.00;;;15.00
63220;BMP180;49320;52.512;13.448;2024-01-30T11:20:19;102312.00;;;15.10
63220;BMP180;49320;52.512;13.448;2024-01-30T11:22:51;102308.00;;;15.10
63220;BMP180;49320;52.512;13.448;2024-01-30T11:25:21;102310.00;;;15.10
63220;BMP180;49320;52.512;13.448;2024-01-30T11:27:54;102313.00;;;15.20
63220;BMP180;49320;52.512;13.448;2024-01-30T11:30:31;102309.00;;;15.20
63220;BMP180;49320;52.512;13.448;2024-01-30T11:33:10;102294.00;;;15.30
63220;BMP180;49320;52.512;13.448;2024-01-30T11:35:42;102307.00;;;15.30
63220;BMP180;49320;52.512;13.448;2024-01-30T11:38:13;102316.00;;;15.30
63220;BMP180;49320;52.512;13.448;2024-01-30T11:40:41;102308.00;;;15.30
63220;BMP180;49320;52.512;13.448;2024-01-30T11:43:09;102314.00;;;15.40
63220;BMP180;49320;52.512;13.448;2024-01-30T11:45:37;102319.00;;;15.40
63220;BMP180;49320;52.512;13.448;2024-01-30T11:48:05;102305.00;;;15.50
63220;BMP180;49320;52.512;13.448;2024-01-30T11:50:34;102307.00;;;15.50
63220;BMP180;49320;52.512;13.448;2024-01-30T11:53:02;102303.00;;;15.60
63220;BMP180;49320;52.512;13.448;2024-01-30T11:55:30;102293.00;;;15.60
63220;BMP180;49320;52.512;13.448;2024-01-30T11:58:01;102304.00;;;15.70
63220;BMP180;49320;52.512;13.448;2024-01-30T12:00:29;102295.00;;;15.70
63220;BMP180;49320;52.512;13.448;2024-01-30T12:02:58;102291.00;;;15.80
63220;BMP180;49320;52.512;13.448;2024-01-30T12:05:28;102283.00;;;15.80
63220;BMP180;49320;52.512;13.448;2024-01-30T12:07:55;102294.00;;;15.90
63220;BMP180;49320;52.512;13.448;2024-01-30T12:10:26;102289.00;;;16.00
63220;BMP180;49320;52.512;13.448;2024-01-30T12:12:54;102282.00;;;16.10
63220;BMP180;49320;52.512;13.448;2024-01-30T12:15:22;102290.00;;;16.20
63220;BMP180;49320;52.512;13.448;2024-01-30T12:17:49;102283.00;;;16.20
63220;BMP180;49320;52.512;13.448;2024-01-30T12:20:20;102277.00;;;16.30
63220;BMP180;49320;52.512;13.448;2024-01-30T12:22:49;102280.00;;;16.40
63220;BMP180;49320;52.512;13.448;2024-01-30T12:25:19;102259.00;;;16.40
63220;BMP180;49320;52.512;13.448;2024-01-30T12:27:49;102277.00;;;16.50
63220;BMP180;49320;52.512;13.448;2024-01-30T12:30:20;102266.00;;;16.50
63220;BMP180;49320;52.512;13.448;2024-01-30T12:32:51;102263.00;;;16.60
63220;BMP180;49320;52.512;13.448;2024-01-30T12:35:20;102262.00;;;16.60
63220;BMP180;49320;52.512;13.448;2024-01-30T12:37:49;102260.00;;;16.70
63220;BMP180;49320;52.512;13.448;2024-01-30T12:40:17;102254.00;;;16.70
63220;BMP180;49320;52.512;13.448;2024-01-30T12:42:47;102241.00;;;16.70
63220;BMP180;49320;52.512;13.448;2024-01-30T12:45:17;102234.00;;;16.70
63220;BMP180;49320;52.512;13.448;2024-01-30T12:47:49;102234.00;;;16.70
63220;BMP180;49320;52.512;13.448;2024-01-30T12:50:17;102234.00;;;16.70
63220;BMP180;49320;52.512;13.448;2024-01-30T12:52:45;102236.00;;;16.70
63220;BMP180;49320;52.512;13.448;2024-01-30T12:55:16;102228.00;;;16.70
63220;BMP180;49320;52.512;13.448;2024-01-30T12:57:44;102227.00;;;16.70
63220;BMP180;49320;52.512;13.448;2024-01-30T13:00:11;102222.00;;;16.70
63220;BMP180;49320;52.512;13.448;2024-01-30T13:02:39;102223.00;;;16.70
63220;BMP180;49320;52.512;13.448;2024-01-30T13:05:06;102218.00;;;16.70
63220;BMP180;49320;52.512;13.448;2024-01-30T13:07:35;102230.00;;;16.70
63220;BMP180;49320;52.512;13.448;2024-01-30T13:10:03;102213.00;;;16.60
63220;BMP180;49320;52.512;13.448;2024-01-30T13:12:32;102225.00;;;16.60
63220;BMP180;49320;52.512;13.448;2024-01-30T13:15:00;102217.00;;;16.60
63220;BMP180;49320;52.512;13.448;2024-01-30T13:17:28;102226.00;;;16.60
63220;BMP180;49320;52.512;13.448;2024-01-30T13:19:55;102226.00;;;16.60
63220;BMP180;49320;52.512;13.448;2024-01-30T13:22:33;102225.00;;;16.60
63220;BMP180;49320;52.512;13.448;2024-01-30T13:25:00;102222.00;;;16.60
63220;BMP180;49320;52.512;13.448;2024-01-30T13:27:28;102214.00;;;16.60
63220;BMP180;49320;52.512;13.448;2024-01-30T13:29:55;102206.00;;;16.60
63220;BMP180;49320;52.512;13.448;2024-01-30T13:32:22;102197.00;;;16.60
63220;BMP180;49320;52.512;13.448;2024-01-30T13:34:50;102198.00;;;16.60
63220;BMP180;49320;52.512;13.448;2024-01-30T13:37:17;102195.00;;;16.60
63220;BMP180;49320;52.512;13.448;2024-01-30T13:39:45;102196.00;;;16.60
63220;BMP180;49320;52.512;13.448;2024-01-30T13:42:12;102193.00;;;16.60
63220;BMP180;49320;52.512;13.448;2024-01-30T13:44:39;102194.00;;;16.60
63220;BMP180;49320;52.512;13.448;2024-01-30T13:47:06;102201.00;;;16.60
63220;BMP180;49320;52.512;13.448;2024-01-30T13:49:33;102212.00;;;16.70
63220;BMP180;49320;52.512;13.448;2024-01-30T13:52:01;102217.00;;;16.70